Time;durP1;ratioP1;P1;durP2;ratioP2;P2;SDS_P1;SDS_P2;PMS_P1;PMS_P2;Temp;Humidity;BMP_temperature;BMP_pressure;BME280_temperature;BME280_humidity;BME280_pressure;Samples;Min_cycle;Max_cycle;Signal;HPM_P1;HPM_P2
2024/03/06 00:01:41;;;;;;;9.93;8.17;;;15.80;52.20;;;;;;5059091;28;20687;-59
2024/03/06 00:04:07;;;;;;;7.87;7.10;;;15.60;52.60;;;;;;5049128;28;20529;-59
2024/03/06 00:06:33;;;;;;;9.13;8.30;;;15.40;52.90;;;;;;5044820;28;20231;-59
2024/03/06 00:08:58;;;;;;;9.80;8.00;;;15.10;53.30;;;;;;5038953;28;20245;-60
2024/03/06 00:11:25;;;;;;;8.77;7.87;;;15.00;53.80;;;;;;5040993;28;20699;-60
2024/03/06 00:13:50;;;;;;;9.73;7.63;;;14.90;54.10;;;;;;5055339;28;20196;-60
2024/03/06 00:16:16;;;;;;;8.33;7.53;;;14.90;54.50;;;;;;5041427;28;20458;-61
2024/03/06 00:18:42;;;;;;;8.93;8.13;;;14.90;54.80;;;;;;5041023;28;20263;-60
2024/03/06 00:21:09;;;;;;;9.83;8.13;;;15.00;54.90;;;;;;5044090;28;20443;-60
2024/03/06 00:23:35;;;;;;;8.93;7.90;;;15.20;54.90;;;;;;5042235;28;20201;-59
2024/03/06 00:26:02;;;;;;;9.33;7.87;;;15.40;55.30;;;;;;5053382;28;20427;-59
2024/03/06 00:28:28;;;;;;;12.30;8.70;;;15.60;55.00;;;;;;5054362;28;20439;-60
2024/03/06 00:30:53;;;;;;;9.67;8.37;;;15.70;54.60;;;;;;5043725;28;20468;-59
2024/03/06 00:33:19;;;;;;;8.57;7.50;;;15.80;54.10;;;;;;5039012;28;20195;-59
2024/03/06 00:35:44;;;;;;;8.70;7.83;;;15.90;53.80;;;;;;5050440;28;20603;-61
2024/03/06 00:38:10;;;;;;;8.30;7.50;;;16.10;53.40;;;;;;5044027;28;20233;-61
2024/03/06 00:40:35;;;;;;;8.70;7.80;;;16.10;53.10;;;;;;5054446;28;20223;-60
2024/03/06 00:43:01;;;;;;;8.30;7.60;;;16.10;52.80;;;;;;5039438;28;20185;-59
2024/03/06 00:45:26;;;;;;;8.47;7.57;;;16.10;52.30;;;;;;5047603;28;20181;-60
2024/03/06 00:47:52;;;;;;;9.20;7.37;;;16.00;52.30;;;;;;5060255;28;20802;-62
2024/03/06 00:50:18;;;;;;;9.27;7.87;;;16.00;52.30;;;;;;5052185;28;20185;-58
2024/03/06 00:52:44;;;;;;;10.50;8.20;;;15.80;52.40;;;;;;5057847;28;20307;-61
2024/03/06 00:55:10;;;;;;;8.17;7.30;;;15.60;52.70;;;;;;5062540;28;20972;-61
2024/03/06 00:57:35;;;;;;;12.23;9.13;;;15.50;53.20;;;;;;5047392;28;20224;-60
2024/03/06 01:00:06;;;;;;;9.20;8.03;;;15.50;53.50;;;;;;5043263;28;20427;-60
2024/03/06 01:02:31;;;;;;;8.37;7.57;;;15.50;53.60;;;;;;5041742;28;20215;-60
2024/03/06 01:04:57;;;;;;;8.10;7.40;;;15.40;53.50;;;;;;5043193;28;20446;-60
2024/03/06 01:07:22;;;;;;;8.73;7.83;;;15.40;53.90;;;;;;5042835;28;21762;-60
2024/03/06 01:09:48;;;;;;;10.20;8.03;;;15.40;54.60;;;;;;5041996;28;20303;-60
2024/03/06 01:12:13;;;;;;;9.40;7.87;;;15.50;54.30;;;;;;5050869;28;20559;-59
2024/03/06 01:14:39;;;;;;;9.10;8.20;;;15.70;55.30;;;;;;5053751;28;20271;-61
2024/03/06 01:17:05;;;;;;;11.00;8.33;;;15.80;54.10;;;;;;5057921;28;20211;-61
2024/03/06 01:19:30;;;;;;;9.20;7.83;;;15.90;53.90;;;;;;5057215;28;20184;-60
2024/03/06 01:21:56;;;;;;;9.63;7.20;;;15.90;53.60;;;;;;5058533;28;20494;-60
2024/03/06 01:24:21;;;;;;;8.87;8.00;;;15.90;53.00;;;;;;5060098;28;20184;-59
2024/03/06 01:26:47;;;;;;;8.40;7.60;;;15.90;52.70;;;;;;5056544;28;20559;-60
2024/03/06 01:29:13;;;;;;;9.00;8.10;;;15.70;52.60;;;;;;5059874;28;20208;-58
2024/03/06 01:31:38;;;;;;;8.80;7.90;;;15.60;52.90;;;;;;5060483;28;20611;-61
2024/03/06 01:34:04;;;;;;;8.73;7.83;;;15.40;53.20;;;;;;5059856;28;20226;-60
2024/03/06 01:36:29;;;;;;;9.50;8.00;;;15.30;53.60;;;;;;5059474;28;20283;-60
2024/03/06 01:38:55;;;;;;;9.70;8.53;;;15.30;54.30;;;;;;5056994;28;20623;-60
2024/03/06 01:41:20;;;;;;;8.50;7.70;;;15.40;53.70;;;;;;5052742;28;20239;-60
2024/03/06 01:43:46;;;;;;;9.07;8.20;;;15.30;53.50;;;;;;5039210;28;20189;-59
2024/03/06 01:46:12;;;;;;;10.00;8.00;;;15.30;53.50;;;;;;5039649;28;20259;-60
2024/03/06 01:48:38;;;;;;;11.97;8.43;;;15.20;53.60;;;;;;5040362;28;20432;-60
2024/03/06 01:51:04;;;;;;;8.67;7.80;;;15.10;53.80;;;;;;5052220;28;20258;-61
2024/03/06 01:53:32;;;;;;;10.10;8.33;;;15.00;54.00;;;;;;5057920;28;20237;-60
2024/03/06 01:55:58;;;;;;;10.23;7.70;;;15.00;54.20;;;;;;5041048;28;20451;-61
2024/03/06 01:58:24;;;;;;;7.87;7.07;;;15.10;54.50;;;;;;5039493;28;20570;-60
2024/03/06 02:00:50;;;;;;;10.23;7.40;;;15.20;54.50;;;;;;5054332;28;20435;-61
2024/03/06 02:03:18;;;;;;;9.17;8.27;;;15.40;54.40;;;;;;5053461;28;20841;-59
2024/03/06 02:05:43;;;;;;;8.93;7.70;;;15.40;53.90;;;;;;5044130;28;20493;-61
2024/03/06 02:08:09;;;;;;;9.10;8.20;;;15.50;54.10;;;;;;5049488;28;20434;-60
2024/03/06 02:10:34;;;;;;;7.80;6.80;;;15.50;54.30;;;;;;5042605;28;20729;-60
2024/03/06 02:13:00;;;;;;;7.43;6.57;;;15.60;54.00;;;;;;5045860;28;20315;-58
2024/03/06 02:15:26;;;;;;;8.77;7.60;;;15.70;53.80;;;;;;5038981;28;20184;-60
2024/03/06 02:17:53;;;;;;;8.47;7.47;;;15.70;53.60;;;;;;5039623;28;20273;-60
2024/03/06 02:20:24;;;;;;;9.50;8.50;;;15.80;53.20;;;;;;5038557;28;20200;-61
2024/03/06 02:22:50;;;;;;;10.93;8.00;;;15.80;53.30;;;;;;5050049;28;20496;-60
2024/03/06 02:25:16;;;;;;;8.27;7.47;;;15.90;53.30;;;;;;5045599;28;20438;-61
2024/03/06 02:27:43;;;;;;;11.20;7.70;;;15.90;53.30;;;;;;5051731;28;20711;-61
2024/03/06 02:30:10;;;;;;;9.30;8.40;;;16.00;53.40;;;;;;5042792;28;20500;-60
2024/03/06 02:32:36;;;;;;;8.17;7.10;;;16.00;53.00;;;;;;5056906;28;20942;-60
2024/03/06 02:35:03;;;;;;;8.27;7.50;;;15.90;53.00;;;;;;5047722;28;20496;-59
2024/03/06 02:37:29;;;;;;;8.20;7.33;;;15.80;53.20;;;;;;5051063;28;20222;-60
2024/03/06 02:39:54;;;;;;;9.03;8.10;;;15.80;53.20;;;;;;5048783;28;20435;-60
2024/03/06 02:42:20;;;;;;;12.97;8.23;;;15.70;53.40;;;;;;5046245;28;20195;-59
2024/03/06 02:44:46;;;;;;;6.90;6.30;;;15.80;53.60;;;;;;5054619;28;20231;-60
2024/03/06 02:47:11;;;;;;;7.87;7.07;;;15.80;53.20;;;;;;5058434;28;20697;-59
2024/03/06 02:49:37;;;;;;;9.50;6.10;;;15.70;53.20;;;;;;5043176;28;20533;-59
2024/03/06 02:52:02;;;;;;;9.57;7.10;;;15.70;53.30;;;;;;5047458;28;20218;-60
2024/03/06 02:54:29;;;;;;;6.87;6.23;;;15.70;53.30;;;;;;5040522;28;20196;-60
2024/03/06 02:56:54;;;;;;;7.07;5.93;;;15.80;53.20;;;;;;5040994;28;20205;-61
2024/03/06 02:59:20;;;;;;;8.60;7.70;;;15.90;53.10;;;;;;5035729;28;20476;-59
2024/03/06 03:01:45;;;;;;;8.17;7.40;;;15.90;52.80;;;;;;5053326;28;20265;-60
2024/03/06 03:04:11;;;;;;;9.30;7.30;;;16.00;52.80;;;;;;5050843;28;20189;-60
2024/03/06 03:06:36;;;;;;;9.87;7.87;;;15.90;52.60;;;;;;5046709;28;20204;-60
2024/03/06 03:09:03;;;;;;;8.67;7.70;;;15.90;52.60;;;;;;5035568;28;20200;-61
2024/03/06 03:11:29;;;;;;;11.40;9.07;;;15.90;52.70;;;;;;5045678;28;20180;-64
2024/03/06 03:13:55;;;;;;;9.77;8.77;;;15.90;52.70;;;;;;5053522;28;20426;-60
2024/03/06 03:16:21;;;;;;;7.93;7.13;;;15.80;53.00;;;;;;5057438;28;20438;-63
2024/03/06 03:18:47;;;;;;;7.87;7.17;;;15.80;53.60;;;;;;5052164;28;20220;-64
2024/03/06 03:21:14;;;;;;;7.73;7.00;;;15.80;53.50;;;;;;5058398;28;20426;-72
2024/03/06 03:23:39;;;;;;;7.57;6.90;;;16.00;53.50;;;;;;5056433;28;20493;-62
2024/03/06 03:26:11;;;;;;;7.77;7.07;;;16.10;53.40;;;;;;5056685;28;20446;-64
2024/03/06 03:28:40;;;;;;;8.43;7.63;;;16.20;53.20;;;;;;5056265;28;20185;-64
2024/03/06 03:31:09;;;;;;;8.20;6.83;;;16.20;52.70;;;;;;5059005;28;21027;-65
2024/03/06 03:33:38;;;;;;;8.13;7.30;;;16.10;52.50;;;;;;5054489;28;20983;-63
2024/03/06 03:36:05;;;;;;;10.00;7.30;;;16.10;52.70;;;;;;5065990;28;20417;-66
2024/03/06 03:38:31;;;;;;;9.17;7.80;;;16.10;52.80;;;;;;5056618;28;20515;-68
2024/03/06 03:40:56;;;;;;;8.10;7.40;;;16.00;52.90;;;;;;5054021;28;20481;-59
2024/03/06 03:43:22;;;;;;;7.33;6.53;;;16.00;53.10;;;;;;5042610;28;20188;-61
2024/03/06 03:45:48;;;;;;;8.03;6.93;;;16.00;53.10;;;;;;5043982;28;20185;-65
2024/03/06 03:48:14;;;;;;;8.60;6.93;;;16.00;53.10;;;;;;5039737;28;20197;-72
2024/03/06 03:50:40;;;;;;;9.50;7.80;;;16.10;52.90;;;;;;5041133;28;20192;-63
2024/03/06 03:53:05;;;;;;;7.00;6.30;;;16.10;52.90;;;;;;5044462;28;20449;-62
2024/03/06 03:55:31;;;;;;;8.20;7.50;;;16.10;52.90;;;;;;5041674;28;20186;-66
2024/03/06 03:57:56;;;;;;;10.23;7.07;;;16.10;53.10;;;;;;5041739;28;20210;-64
2024/03/06 04:00:22;;;;;;;10.50;6.50;;;16.10;53.00;;;;;;5042097;28;20203;-63
2024/03/06 04:02:48;;;;;;;5.97;5.47;;;16.10;53.00;;;;;;5039268;28;20291;-65
2024/03/06 04:05:14;;;;;;;7.73;6.63;;;16.10;53.00;;;;;;5041350;28;20450;-69
2024/03/06 04:07:40;;;;;;;7.57;6.77;;;16.10;52.90;;;;;;5048947;28;20482;-63
2024/03/06 04:10:06;;;;;;;7.10;6.40;;;16.10;52.90;;;;;;5039033;28;20466;-63
2024/03/06 04:12:32;;;;;;;6.30;5.70;;;16.10;52.80;;;;;;5042275;28;20212;-64
2024/03/06 04:14:57;;;;;;;6.20;5.60;;;16.10;52.70;;;;;;5042940;28;20478;-67
2024/03/06 04:17:24;;;;;;;8.47;6.93;;;16.10;52.80;;;;;;5041538;28;20590;-59
2024/03/06 04:19:50;;;;;;;5.90;5.40;;;16.20;53.00;;;;;;5043862;28;20572;-63
2024/03/06 04:22:19;;;;;;;7.40;6.57;;;16.20;52.70;;;;;;5042320;28;20447;-63
2024/03/06 04:24:44;;;;;;;7.33;5.70;;;16.30;52.60;;;;;;5041148;28;20266;-65
2024/03/06 04:27:10;;;;;;;6.60;6.00;;;16.30;52.60;;;;;;5039535;28;20594;-65
2024/03/06 04:29:36;;;;;;;6.63;5.87;;;16.30;52.40;;;;;;5042796;28;20892;-63
2024/03/06 04:32:01;;;;;;;11.43;5.50;;;16.30;52.30;;;;;;5042795;28;20473;-64
2024/03/06 04:34:27;;;;;;;6.13;5.53;;;16.30;52.10;;;;;;5042404;28;21205;-60
2024/03/06 04:36:53;;;;;;;7.43;5.90;;;16.30;52.20;;;;;;5046680;28;20218;-66
2024/03/06 04:39:18;;;;;;;5.60;5.10;;;16.30;52.30;;;;;;5036294;28;20227;-67
2024/03/06 04:41:44;;;;;;;5.50;5.00;;;16.40;52.40;;;;;;5041553;28;20545;-64
2024/03/06 04:44:09;;;;;;;6.03;5.33;;;16.40;52.20;;;;;;5050674;28;20318;-60
2024/03/06 04:46:35;;;;;;;6.90;5.87;;;16.40;52.10;;;;;;5056340;28;20346;-63
2024/03/06 04:49:00;;;;;;;6.40;5.80;;;16.30;52.00;;;;;;5055055;28;20180;-68
2024/03/06 04:51:26;;;;;;;7.03;4.93;;;16.30;52.30;;;;;;5055642;28;20280;-63
2024/03/06 04:53:52;;;;;;;6.10;5.43;;;16.40;52.40;;;;;;5063636;28;20656;-62
2024/03/06 04:56:18;;;;;;;5.67;5.03;;;16.40;52.30;;;;;;5059136;28;20287;-63
2024/03/06 04:58:45;;;;;;;8.60;5.13;;;16.50;52.30;;;;;;5050528;28;20305;-60
2024/03/06 05:01:12;;;;;;;5.60;5.07;;;16.50;52.20;;;;;;5047163;28;20554;-65
2024/03/06 05:03:38;;;;;;;5.17;4.77;;;16.40;52.10;;;;;;5041639;28;20443;-61
2024/03/06 05:06:07;;;;;;;5.50;4.93;;;16.30;52.20;;;;;;5041944;28;21341;-65
2024/03/06 05:08:33;;;;;;;6.30;4.80;;;16.20;52.60;;;;;;5042955;28;20192;-64
2024/03/06 05:11:02;;;;;;;5.60;5.00;;;16.00;52.70;;;;;;5043720;28;20486;-65
2024/03/06 05:13:28;;;;;;;6.37;5.77;;;15.70;52.90;;;;;;5051720;28;20430;-64
2024/03/06 05:15:54;;;;;;;7.50;6.17;;;15.50;53.30;;;;;;5058978;28;20422;-64
2024/03/06 05:18:20;;;;;;;6.17;5.57;;;15.30;53.80;;;;;;5053204;28;20216;-64
2024/03/06 05:20:46;;;;;;;5.93;5.37;;;15.00;54.40;;;;;;5062400;28;20432;-64
2024/03/06 05:23:12;;;;;;;6.77;5.33;;;14.90;54.90;;;;;;5055651;28;20431;-64
2024/03/06 05:25:38;;;;;;;5.57;4.97;;;14.70;55.20;;;;;;5061392;28;21014;-64
2024/03/06 05:28:05;;;;;;;6.13;4.90;;;14.50;55.50;;;;;;5057678;28;20458;-64
2024/03/06 05:30:30;;;;;;;5.80;5.20;;;14.40;56.00;;;;;;5055353;28;20187;-64
2024/03/06 05:32:56;;;;;;;6.90;6.20;;;14.30;56.50;;;;;;5060625;28;20471;-64
2024/03/06 05:35:22;;;;;;;5.87;5.27;;;14.10;56.80;;;;;;5061895;28;20191;-64
2024/03/06 05:37:47;;;;;;;7.77;7.03;;;14.00;57.40;;;;;;5057459;28;20220;-64
2024/03/06 05:40:13;;;;;;;6.27;5.50;;;13.90;57.70;;;;;;5059563;28;20263;-64
2024/03/06 05:42:38;;;;;;;5.70;5.20;;;13.80;57.90;;;;;;5043790;28;20217;-62
2024/03/06 05:45:10;;;;;;;6.23;5.63;;;13.70;58.10;;;;;;5041092;28;20177;-63
2024/03/06 05:47:36;;;;;;;7.70;5.80;;;13.70;58.30;;;;;;5039144;28;20571;-65
2024/03/06 05:50:04;;;;;;;6.80;6.20;;;13.60;58.60;;;;;;5039533;28;20530;-64
2024/03/06 05:52:30;;;;;;;6.70;6.00;;;13.60;58.80;;;;;;5038766;28;20958;-64
2024/03/06 05:54:56;;;;;;;7.40;5.90;;;13.60;59.00;;;;;;5039372;28;20517;-67
2024/03/06 05:57:21;;;;;;;7.03;6.13;;;13.50;59.10;;;;;;5039359;28;21004;-64
2024/03/06 05:59:47;;;;;;;9.20;6.40;;;13.40;59.20;;;;;;5039652;28;20185;-65
2024/03/06 06:02:12;;;;;;;6.50;5.90;;;13.40;59.50;;;;;;5041459;28;20523;-61
2024/03/06 06:04:38;;;;;;;8.63;7.00;;;13.40;59.60;;;;;;5041079;28;20180;-63
2024/03/06 06:07:03;;;;;;;7.27;6.57;;;13.30;60.20;;;;;;5049163;28;20221;-65
2024/03/06 06:09:29;;;;;;;7.60;6.40;;;13.30;59.80;;;;;;5055957;28;20231;-64
2024/03/06 06:11:55;;;;;;;8.63;7.03;;;13.30;59.90;;;;;;5050472;28;20200;-62
2024/03/06 06:14:21;;;;;;;8.20;6.50;;;13.30;60.00;;;;;;5054792;28;20187;-64
2024/03/06 06:16:47;;;;;;;7.30;6.50;;;13.20;60.20;;;;;;5059330;28;20283;-63
2024/03/06 06:19:13;;;;;;;9.70;7.77;;;13.20;60.50;;;;;;5056734;28;20642;-63
2024/03/06 06:21:38;;;;;;;6.80;6.10;;;13.20;60.80;;;;;;5050066;28;20192;-64
2024/03/06 06:24:05;;;;;;;8.60;5.87;;;13.20;60.80;;;;;;5053209;28;20648;-64
2024/03/06 06:26:31;;;;;;;6.30;5.70;;;13.40;61.10;;;;;;5040990;28;20204;-64
2024/03/06 06:28:57;;;;;;;8.33;6.13;;;13.50;61.00;;;;;;5045717;28;20439;-60
2024/03/06 06:31:25;;;;;;;7.40;6.70;;;13.50;60.60;;;;;;5050734;28;20442;-63
2024/03/06 06:33:51;;;;;;;8.30;6.60;;;13.60;60.60;;;;;;5047300;28;21330;-63
2024/03/06 06:36:17;;;;;;;6.53;5.93;;;13.70;60.10;;;;;;5041039;28;20463;-62
2024/03/06 06:38:43;;;;;;;7.23;6.47;;;13.80;60.00;;;;;;5038477;28;20479;-63
2024/03/06 06:41:10;;;;;;;9.93;7.30;;;13.80;59.80;;;;;;5039204;28;20504;-61
2024/03/06 06:43:36;;;;;;;7.70;5.73;;;13.80;59.60;;;;;;5044987;28;20427;-64
2024/03/06 06:46:04;;;;;;;6.30;5.73;;;13.80;59.50;;;;;;5051607;28;20438;-66
2024/03/06 06:48:30;;;;;;;6.80;5.93;;;13.80;59.80;;;;;;5051523;28;20438;-64
2024/03/06 06:50:56;;;;;;;7.00;6.30;;;13.80;59.70;;;;;;5054712;28;20453;-60
2024/03/06 06:53:21;;;;;;;6.30;5.70;;;13.80;59.70;;;;;;5057793;28;21089;-61
2024/03/06 06:55:47;;;;;;;6.73;5.90;;;13.80;59.80;;;;;;5059915;28;20271;-63
2024/03/06 06:58:12;;;;;;;6.70;5.83;;;13.70;59.80;;;;;;5061799;28;20212;-65
2024/03/06 07:00:38;;;;;;;8.40;6.83;;;13.60;59.90;;;;;;5054082;28;20231;-64
2024/03/06 07:03:04;;;;;;;7.17;6.43;;;13.60;60.30;;;;;;5051470;28;20730;-63
2024/03/06 07:05:29;;;;;;;7.40;5.50;;;13.60;60.40;;;;;;5055761;28;20208;-63
2024/03/06 07:07:55;;;;;;;6.87;6.03;;;13.60;60.30;;;;;;5059464;28;20204;-63
2024/03/06 07:10:21;;;;;;;5.90;5.33;;;13.60;60.30;;;;;;5065659;28;20737;-62
2024/03/06 07:12:47;;;;;;;6.63;6.03;;;13.70;60.40;;;;;;5059871;28;20177;-62
2024/03/06 07:15:13;;;;;;;8.60;6.70;;;13.60;60.30;;;;;;5055910;28;20472;-65
2024/03/06 07:17:38;;;;;;;7.40;6.43;;;13.60;60.40;;;;;;5059071;28;20249;-60
2024/03/06 07:20:06;;;;;;;6.30;5.70;;;13.70;60.40;;;;;;5064094;28;20211;-62
2024/03/06 07:22:32;;;;;;;5.60;5.10;;;13.60;60.30;;;;;;5056618;28;20196;-63
2024/03/06 07:24:58;;;;;;;6.33;5.37;;;13.60;60.60;;;;;;5056363;28;20422;-62
2024/03/06 07:27:23;;;;;;;5.83;5.23;;;13.60;60.60;;;;;;5056093;28;20533;-63
2024/03/06 07:29:49;;;;;;;6.93;5.47;;;13.60;60.80;;;;;;5053792;28;20189;-64
2024/03/06 07:32:14;;;;;;;7.67;5.40;;;13.60;60.80;;;;;;5056646;28;20188;-68
2024/03/06 07:34:40;;;;;;;7.40;5.20;;;13.50;60.90;;;;;;5055636;28;20173;-57
2024/03/06 07:37:06;;;;;;;6.17;5.40;;;13.50;61.30;;;;;;5060787;28;20850;-61
2024/03/06 07:39:31;;;;;;;6.43;5.83;;;13.40;61.40;;;;;;5057648;28;20212;-67
2024/03/06 07:41:57;;;;;;;5.83;5.20;;;13.30;61.50;;;;;;5054227;28;20263;-64
2024/03/06 07:44:23;;;;;;;7.53;5.67;;;13.40;61.60;;;;;;5055745;28;20191;-59
2024/03/06 07:46:48;;;;;;;6.93;5.77;;;13.40;61.90;;;;;;5058264;28;20482;-60
2024/03/06 07:49:14;;;;;;;5.37;4.87;;;13.40;62.20;;;;;;5052629;28;20760;-67
2024/03/06 07:51:42;;;;;;;7.00;5.57;;;13.40;61.70;;;;;;5052180;28;20180;-63
2024/03/06 07:54:08;;;;;;;6.50;5.60;;;13.20;62.90;;;;;;5055800;28;20184;-61
2024/03/06 07:56:34;;;;;;;6.40;5.40;;;13.30;62.20;;;;;;5057907;28;21014;-63
2024/03/06 07:59:00;;;;;;;6.67;5.97;;;13.30;62.10;;;;;;5063785;28;20262;-58
2024/03/06 08:01:28;;;;;;;7.17;5.23;;;13.20;62.50;;;;;;5059113;28;20429;-64
2024/03/06 08:03:55;;;;;;;5.80;5.30;;;13.10;62.70;;;;;;5059170;28;20431;-62
2024/03/06 08:06:20;;;;;;;7.50;6.00;;;13.00;63.50;;;;;;5064130;28;21587;-60
2024/03/06 08:08:46;;;;;;;6.90;5.53;;;13.10;63.40;;;;;;5052904;28;20493;-64
2024/03/06 08:11:13;;;;;;;7.10;5.73;;;13.10;63.70;;;;;;5058778;28;20640;-63
2024/03/06 08:13:39;;;;;;;6.90;5.50;;;13.20;63.00;;;;;;5052459;28;20429;-62
2024/03/06 08:16:06;;;;;;;7.77;5.40;;;13.20;63.20;;;;;;5064190;28;20480;-64
2024/03/06 08:18:33;;;;;;;5.57;5.03;;;13.20;63.30;;;;;;5059213;28;20516;-67
2024/03/06 08:20:58;;;;;;;6.67;5.57;;;13.30;63.30;;;;;;5063016;28;20435;-63
2024/03/06 08:23:24;;;;;;;7.30;5.73;;;13.40;63.30;;;;;;5063930;28;20751;-64
2024/03/06 08:25:50;;;;;;;7.33;6.70;;;13.40;63.10;;;;;;5059992;28;20184;-61
2024/03/06 08:28:16;;;;;;;6.63;5.93;;;13.20;63.20;;;;;;5049290;28;20791;-64
2024/03/06 08:30:43;;;;;;;7.70;6.07;;;13.20;63.40;;;;;;5053379;28;20439;-65
2024/03/06 08:33:09;;;;;;;9.83;6.13;;;13.00;63.50;;;;;;5052351;28;20229;-62
2024/03/06 08:35:35;;;;;;;7.57;6.87;;;13.10;63.60;;;;;;5057213;28;20851;-62
2024/03/06 08:38:01;;;;;;;8.10;7.30;;;13.10;63.60;;;;;;5059842;28;20478;-65
2024/03/06 08:40:27;;;;;;;7.67;6.87;;;13.10;63.70;;;;;;5057002;28;20188;-63
2024/03/06 08:42:53;;;;;;;8.63;6.90;;;13.10;64.20;;;;;;5053600;28;20203;-64
2024/03/06 08:45:19;;;;;;;10.43;7.03;;;13.00;64.00;;;;;;5052196;28;20431;-63
2024/03/06 08:47:45;;;;;;;8.40;7.37;;;13.00;64.40;;;;;;5055493;28;20200;-65
2024/03/06 08:50:12;;;;;;;8.00;7.20;;;13.00;64.80;;;;;;5055395;28;20434;-64
2024/03/06 08:52:38;;;;;;;7.20;6.50;;;13.00;64.40;;;;;;5052597;28;20435;-60
2024/03/06 08:55:05;;;;;;;9.17;7.10;;;12.90;65.10;;;;;;5053376;28;20443;-64
2024/03/06 08:57:31;;;;;;;7.80;7.10;;;12.80;65.30;;;;;;5057078;28;20431;-66
2024/03/06 08:59:58;;;;;;;8.13;7.27;;;12.80;65.40;;;;;;5059409;28;20866;-62
2024/03/06 09:02:24;;;;;;;9.33;7.90;;;12.60;65.60;;;;;;5051425;28;20434;-64
2024/03/06 09:04:51;;;;;;;13.53;7.90;;;12.50;66.20;;;;;;5052812;28;20447;-61
2024/03/06 09:07:17;;;;;;;9.60;8.00;;;12.60;66.50;;;;;;5049693;28;20241;-62
2024/03/06 09:09:43;;;;;;;11.00;8.23;;;12.60;66.60;;;;;;5050763;28;20466;-61
2024/03/06 09:12:14;;;;;;;8.63;7.73;;;12.70;66.50;;;;;;5055091;28;20623;-61
2024/03/06 09:14:41;;;;;;;8.53;7.60;;;12.70;66.50;;;;;;5056468;28;20213;-60
2024/03/06 09:17:10;;;;;;;10.43;8.67;;;12.80;66.30;;;;;;5056562;28;20458;-61
2024/03/06 09:19:36;;;;;;;9.63;7.77;;;12.90;66.00;;;;;;5051511;28;20489;-61
2024/03/06 09:22:02;;;;;;;13.30;9.00;;;12.90;66.00;;;;;;5054837;28;20856;-60
2024/03/06 09:24:28;;;;;;;8.80;8.00;;;13.00;66.20;;;;;;5056019;28;20205;-60
2024/03/06 09:26:54;;;;;;;8.73;7.93;;;13.00;66.20;;;;;;5053529;28;20501;-61
2024/03/06 09:29:20;;;;;;;9.10;8.30;;;13.10;66.20;;;;;;5051905;28;20196;-60
2024/03/06 09:31:47;;;;;;;9.90;9.00;;;13.20;66.10;;;;;;5055794;28;20189;-62
2024/03/06 09:34:13;;;;;;;10.10;8.00;;;13.10;65.90;;;;;;5055053;28;20525;-61
2024/03/06 09:36:46;;;;;;;9.50;7.93;;;13.00;66.30;;;;;;5061488;28;20477;-61
2024/03/06 09:39:25;;;;;;;9.80;8.80;;;13.10;66.30;;;;;;5052056;28;20212;-61
2024/03/06 09:41:51;;;;;;;14.13;8.70;;;13.30;65.90;;;;;;5055107;28;20419;-60
2024/03/06 09:44:17;;;;;;;9.60;8.13;;;13.30;65.60;;;;;;5058569;28;20870;-60
2024/03/06 09:46:45;;;;;;;9.40;8.43;;;13.40;65.30;;;;;;5060129;28;20543;-61
2024/03/06 09:49:16;;;;;;;14.50;9.60;;;13.40;65.10;;;;;;5056598;28;20929;-61
2024/03/06 09:51:52;;;;;;;10.33;8.23;;;13.40;64.80;;;;;;5051682;28;20438;-61
2024/03/06 09:54:19;;;;;;;9.70;8.80;;;13.40;64.60;;;;;;5053659;28;20472;-60
2024/03/06 09:56:45;;;;;;;10.90;9.90;;;13.40;64.90;;;;;;5051258;28;21007;-59
2024/03/06 09:59:12;;;;;;;11.47;9.20;;;13.40;64.80;;;;;;5057584;28;20477;-61
2024/03/06 10:01:50;;;;;;;11.20;10.10;;;13.30;64.80;;;;;;5054175;28;20439;-61
2024/03/06 10:04:20;;;;;;;10.93;8.77;;;13.30;65.10;;;;;;5055329;28;20449;-60
2024/03/06 10:06:46;;;;;;;10.90;9.23;;;13.30;65.00;;;;;;5054731;28;20890;-60
2024/03/06 10:09:12;;;;;;;13.03;9.13;;;13.30;65.00;;;;;;5053081;28;20492;-61
2024/03/06 10:11:42;;;;;;;10.57;9.57;;;13.30;65.00;;;;;;5057164;28;20844;-60
2024/03/06 10:14:08;;;;;;;11.53;10.33;;;13.40;65.10;;;;;;5053482;28;20226;-60
2024/03/06 10:16:36;;;;;;;11.40;8.90;;;13.40;65.00;;;;;;5047339;28;21212;-61
2024/03/06 10:19:20;;;;;;;10.73;9.63;;;13.50;65.00;;;;;;5061215;28;20492;-60
2024/03/06 10:21:50;;;;;;;12.33;9.90;;;13.60;65.00;;;;;;5055554;28;20437;-61
2024/03/06 10:24:26;;;;;;;10.10;8.77;;;13.50;65.10;;;;;;5056864;28;20439;-61
2024/03/06 10:26:54;;;;;;;10.67;9.30;;;13.60;65.10;;;;;;5054896;28;20446;-60
2024/03/06 10:29:21;;;;;;;10.33;8.80;;;13.70;65.30;;;;;;5055691;28;20905;-62
2024/03/06 10:31:52;;;;;;;10.77;8.77;;;13.60;64.80;;;;;;5062667;28;20437;-62
2024/03/06 10:34:19;;;;;;;13.77;10.37;;;13.60;64.60;;;;;;5058569;28;20476;-61
2024/03/06 10:36:45;;;;;;;10.97;9.97;;;13.60;64.30;;;;;;5059500;28;20977;-60
2024/03/06 10:39:15;;;;;;;10.83;9.73;;;13.50;64.60;;;;;;5061260;28;20500;-61
2024/03/06 10:41:42;;;;;;;13.90;10.63;;;13.50;64.40;;;;;;5064239;28;20690;-59
2024/03/06 10:44:15;;;;;;;11.63;10.00;;;13.40;64.40;;;;;;5061475;28;20864;-59
2024/03/06 10:46:47;;;;;;;11.97;10.77;;;13.40;64.90;;;;;;5061801;28;20437;-61
2024/03/06 10:49:14;;;;;;;12.50;9.80;;;13.30;65.10;;;;;;5062898;28;20419;-61
2024/03/06 10:51:43;;;;;;;12.10;10.43;;;13.30;65.30;;;;;;5060726;28;20576;-59
2024/03/06 10:54:10;;;;;;;13.27;10.50;;;13.40;65.50;;;;;;5054037;28;20439;-60
2024/03/06 10:56:39;;;;;;;13.37;11.47;;;13.40;65.40;;;;;;5059228;28;20462;-60
2024/03/06 10:59:06;;;;;;;12.00;10.90;;;13.40;65.40;;;;;;5061215;28;20528;-61
2024/03/06 11:01:32;;;;;;;16.23;12.80;;;13.50;65.20;;;;;;5056307;28;20427;-60
2024/03/06 11:04:00;;;;;;;12.27;10.40;;;13.20;65.30;;;;;;5061963;28;20805;-61
2024/03/06 11:06:26;;;;;;;12.17;10.97;;;13.10;66.40;;;;;;5067365;28;20461;-60
2024/03/06 11:08:52;;;;;;;12.17;10.97;;;13.10;66.90;;;;;;5063998;28;20446;-60
2024/03/06 11:11:25;;;;;;;13.47;12.07;;;13.20;67.00;;;;;;5065114;28;20422;-58
2024/03/06 11:13:57;;;;;;;13.83;12.33;;;13.20;67.20;;;;;;5061030;28;20246;-59
2024/03/06 11:16:33;;;;;;;17.97;13.23;;;13.10;67.60;;;;;;5065928;28;20426;-61
2024/03/06 11:19:07;;;;;;;14.13;12.37;;;13.10;67.10;;;;;;5070310;28;20531;-60
2024/03/06 11:21:33;;;;;;;13.73;11.90;;;13.10;67.40;;;;;;5062870;28;20565;-61
2024/03/06 11:24:20;;;;;;;13.57;12.17;;;13.00;68.40;;;;;;5064867;28;20469;-61
2024/03/06 11:26:57;;;;;;;13.00;11.57;;;13.10;67.80;;;;;;5062910;28;20281;-60
2024/03/06 11:29:24;;;;;;;13.00;11.80;;;13.00;68.20;;;;;;5064540;28;20953;-60
2024/03/06 11:32:07;;;;;;;15.53;12.87;;;13.10;67.90;;;;;;5065838;28;20411;-59
2024/03/06 11:34:33;;;;;;;14.27;12.80;;;13.20;67.50;;;;;;5058006;28;20430;-61
2024/03/06 11:37:04;;;;;;;14.27;12.87;;;13.30;67.20;;;;;;5047194;28;20446;-60
2024/03/06 11:39:34;;;;;;;15.63;13.10;;;13.10;67.70;;;;;;5054786;28;20482;-60
2024/03/06 11:42:00;;;;;;;15.43;11.30;;;13.10;68.10;;;;;;5056360;28;20505;-60
2024/03/06 11:44:28;;;;;;;15.00;13.40;;;13.10;68.30;;;;;;5060613;28;20422;-60
2024/03/06 11:47:01;;;;;;;18.43;13.10;;;13.10;68.60;;;;;;5063459;28;21763;-60
2024/03/06 11:49:34;;;;;;;17.63;13.73;;;13.20;68.70;;;;;;5061878;28;20430;-59
2024/03/06 11:52:05;;;;;;;15.47;13.60;;;13.20;68.40;;;;;;5057803;28;20538;-60
2024/03/06 11:54:32;;;;;;;17.53;13.10;;;12.90;68.20;;;;;;5062686;28;20905;-60
2024/03/06 11:57:00;;;;;;;18.23;15.00;;;13.00;68.90;;;;;;5064686;28;20812;-60
2024/03/06 11:59:27;;;;;;;17.93;13.67;;;13.10;69.30;;;;;;5062099;28;20515;-60
2024/03/06 12:01:54;;;;;;;14.47;12.73;;;13.10;69.10;;;;;;5060676;28;20477;-60
2024/03/06 12:04:21;;;;;;;15.87;13.47;;;13.20;68.70;;;;;;5062500;28;20418;-58
2024/03/06 12:06:47;;;;;;;17.17;14.47;;;13.30;68.50;;;;;;5063796;28;20446;-60
2024/03/06 12:09:14;;;;;;;16.67;14.83;;;13.30;68.10;;;;;;5061035;28;20438;-60
2024/03/06 12:11:43;;;;;;;15.53;13.60;;;13.50;67.80;;;;;;5060160;28;20415;-61
2024/03/06 12:14:17;;;;;;;19.43;14.50;;;13.50;67.30;;;;;;5058551;28;20529;-60
2024/03/06 12:16:54;;;;;;;15.13;13.47;;;13.50;67.40;;;;;;5049645;28;20462;-60
2024/03/06 12:19:20;;;;;;;15.53;13.50;;;13.50;67.20;;;;;;5058246;28;20478;-61
2024/03/06 12:21:48;;;;;;;22.37;15.17;;;13.50;67.10;;;;;;5053447;28;20455;-60
2024/03/06 12:24:18;;;;;;;18.00;14.60;;;13.40;67.70;;;;;;5062249;28;20446;-60
2024/03/06 12:26:44;;;;;;;17.40;14.93;;;13.50;67.80;;;;;;5054675;28;20447;-61
2024/03/06 12:29:11;;;;;;;18.53;15.83;;;13.50;67.40;;;;;;5052691;28;20435;-59
2024/03/06 12:31:41;;;;;;;17.80;15.40;;;13.60;67.30;;;;;;5056376;28;20207;-60
2024/03/06 12:34:07;;;;;;;16.53;14.60;;;13.60;67.30;;;;;;5058735;28;20530;-61
2024/03/06 12:36:34;;;;;;;17.20;14.60;;;13.60;67.70;;;;;;5052460;28;20543;-59
2024/03/06 12:39:02;;;;;;;17.20;14.87;;;13.70;67.90;;;;;;5056240;28;20255;-61
2024/03/06 12:41:28;;;;;;;19.43;15.13;;;13.60;67.90;;;;;;5055472;28;20453;-61